BTY5CT VIDP-VNKT
Flight info
| Callsign | BTY5CT |
|---|---|
| Flight time | 1h 44m |
| Altitude | 35000 |
| Route | ALI G452 LKN G598 SMR SMR |
| Aircraft | A359/H-SDE2E3GHIJ1J3J4J5LM1ORWXY/LB1D1 |
Departure
| Time | 2025-12-30 08:21 |
|---|---|
| Airport | Indira Gandhi International Airport (VIDP) |
Arrival
| Time | 2025-12-30 10:05 |
|---|---|
| Airport | Tribhuvan International Airport (VNKT) |
| Time | Latitude | Longitude | Altitude | Speed | Heading |
|---|---|---|---|---|---|
| 2025-12-30 07:43 | 28.55487 | 77.11817 | 753 ft | 0 kts | 295° |
| 2025-12-30 08:13 | 28.55478 | 77.11837 | 761 ft | 3 kts | 316° |
| 2025-12-30 08:13 | 28.55433 | 77.11843 | 751 ft | 0 kts | 15° |
| 2025-12-30 08:16 | 28.55434 | 77.11844 | 751 ft | 3 kts | 15° |
| 2025-12-30 08:16 | 28.55587 | 77.11892 | 753 ft | 15 kts | 16° |
| 2025-12-30 08:17 | 28.55670 | 77.11918 | 753 ft | 0 kts | 15° |
| 2025-12-30 08:17 | 28.55759 | 77.11842 | 753 ft | 15 kts | 289° |
| 2025-12-30 08:18 | 28.55822 | 77.11750 | 751 ft | 16 kts | 346° |
| 2025-12-30 08:19 | 28.55986 | 77.11676 | 754 ft | 12 kts | 287° |
| 2025-12-30 08:19 | 28.56148 | 77.11011 | 751 ft | 106 kts | 284° |
| 2025-12-30 08:20 | 28.56683 | 77.08586 | 1116 ft | 191 kts | 284° |
| 2025-12-30 08:20 | 28.57390 | 77.05614 | 2610 ft | 202 kts | 286° |
| 2025-12-30 08:21 | 28.58182 | 77.02268 | 3282 ft | 240 kts | 285° |
| 2025-12-30 08:21 | 28.59499 | 76.96473 | 5002 ft | 261 kts | 284° |
| 2025-12-30 08:22 | 28.60415 | 76.92398 | 6225 ft | 270 kts | 284° |
| 2025-12-30 08:22 | 28.60995 | 76.88154 | 7389 ft | 275 kts | 262° |
| 2025-12-30 08:23 | 28.60348 | 76.86124 | 8028 ft | 276 kts | 237° |
| 2025-12-30 08:23 | 28.57147 | 76.83911 | 8939 ft | 281 kts | 189° |
| 2025-12-30 08:24 | 28.53221 | 76.83837 | 8998 ft | 284 kts | 181° |
| 2025-12-30 08:24 | 28.49267 | 76.83869 | 8998 ft | 284 kts | 181° |
| 2025-12-30 08:25 | 28.45310 | 76.83855 | 8992 ft | 284 kts | 182° |
| 2025-12-30 08:25 | 28.39382 | 76.83808 | 8992 ft | 284 kts | 182° |
| 2025-12-30 08:26 | 28.35419 | 76.84013 | 9436 ft | 288 kts | 176° |
| 2025-12-30 08:26 | 28.33419 | 76.84219 | 10105 ft | 289 kts | 177° |
| 2025-12-30 08:27 | 28.29270 | 76.84947 | 10643 ft | 320 kts | 161° |
| 2025-12-30 08:27 | 28.25936 | 76.88500 | 10983 ft | 358 kts | 118° |
| 2025-12-30 08:28 | 28.23994 | 76.93877 | 11586 ft | 375 kts | 113° |
| 2025-12-30 08:28 | 28.22058 | 76.99431 | 12463 ft | 382 kts | 114° |
| 2025-12-30 08:29 | 28.20054 | 77.05060 | 13328 ft | 388 kts | 114° |
| 2025-12-30 08:29 | 28.16955 | 77.13665 | 14550 ft | 397 kts | 115° |
| 2025-12-30 08:30 | 28.14475 | 77.19283 | 15361 ft | 401 kts | 120° |
| 2025-12-30 08:30 | 28.13169 | 77.22088 | 15770 ft | 404 kts | 120° |
| 2025-12-30 08:31 | 28.10525 | 77.27767 | 16543 ft | 411 kts | 120° |
| 2025-12-30 08:31 | 28.07839 | 77.33540 | 17379 ft | 416 kts | 120° |
| 2025-12-30 08:32 | 28.05143 | 77.39331 | 18251 ft | 421 kts | 120° |
| 2025-12-30 08:32 | 28.02395 | 77.45232 | 18921 ft | 427 kts | 120° |
| 2025-12-30 08:32 | 28.01002 | 77.48218 | 19260 ft | 430 kts | 120° |
| 2025-12-30 08:33 | 27.94236 | 77.59383 | 20590 ft | 435 kts | 140° |
| 2025-12-30 08:34 | 27.92015 | 77.61719 | 20895 ft | 438 kts | 140° |
| 2025-12-30 08:34 | 27.87525 | 77.66430 | 21547 ft | 443 kts | 139° |
| 2025-12-30 08:35 | 27.83894 | 77.72115 | 22148 ft | 456 kts | 114° |
| 2025-12-30 08:35 | 27.82739 | 77.79181 | 22760 ft | 463 kts | 92° |
| 2025-12-30 08:36 | 27.82712 | 77.86500 | 23340 ft | 468 kts | 88° |
| 2025-12-30 08:36 | 27.82845 | 77.93890 | 23856 ft | 474 kts | 88° |
| 2025-12-30 08:37 | 27.82920 | 78.01392 | 24281 ft | 481 kts | 89° |
| 2025-12-30 08:37 | 27.82931 | 78.12842 | 24919 ft | 490 kts | 90° |
| 2025-12-30 08:39 | 27.77964 | 78.31417 | 25949 ft | 505 kts | 115° |
| 2025-12-30 08:41 | 27.66599 | 78.61233 | 27666 ft | 531 kts | 114° |
| 2025-12-30 08:43 | 27.54661 | 78.92684 | 29437 ft | 560 kts | 114° |
| 2025-12-30 08:45 | 27.42052 | 79.25619 | 31111 ft | 585 kts | 114° |
| 2025-12-30 08:47 | 27.28722 | 79.59868 | 32406 ft | 608 kts | 115° |
| 2025-12-30 08:48 | 27.16340 | 79.90489 | 33624 ft | 622 kts | 115° |
| 2025-12-30 08:51 | 27.00190 | 80.30262 | 35002 ft | 621 kts | 115° |
| 2025-12-30 08:52 | 26.87571 | 80.61063 | 35004 ft | 621 kts | 115° |
| 2025-12-30 08:55 | 26.77056 | 81.01674 | 34996 ft | 601 kts | 77° |
| 2025-12-30 08:56 | 26.80786 | 81.34015 | 35000 ft | 600 kts | 76° |
| 2025-12-30 08:59 | 26.85070 | 81.74198 | 35000 ft | 600 kts | 76° |
| 2025-12-30 09:01 | 26.88939 | 82.11318 | 34994 ft | 600 kts | 76° |
| 2025-12-30 09:03 | 26.93165 | 82.53037 | 35002 ft | 599 kts | 76° |
| 2025-12-30 09:05 | 26.96371 | 82.85521 | 35004 ft | 598 kts | 76° |
| 2025-12-30 09:07 | 27.00080 | 83.22561 | 35018 ft | 597 kts | 76° |
| 2025-12-30 09:08 | 27.03325 | 83.54838 | 35037 ft | 596 kts | 76° |
| 2025-12-30 09:11 | 27.07382 | 83.96353 | 33171 ft | 593 kts | 77° |
| 2025-12-30 09:13 | 27.10776 | 84.32207 | 27204 ft | 554 kts | 81° |
| 2025-12-30 09:14 | 27.12326 | 84.48894 | 24903 ft | 522 kts | 81° |
| 2025-12-30 09:14 | 27.13051 | 84.56794 | 22961 ft | 495 kts | 81° |
| 2025-12-30 09:15 | 27.13719 | 84.64146 | 21844 ft | 463 kts | 81° |
| 2025-12-30 09:15 | 27.14352 | 84.71282 | 20736 ft | 455 kts | 82° |
| 2025-12-30 09:16 | 27.14900 | 84.78323 | 19565 ft | 452 kts | 82° |
| 2025-12-30 09:16 | 27.15425 | 84.85276 | 18650 ft | 437 kts | 82° |
| 2025-12-30 09:17 | 27.15918 | 84.91823 | 18397 ft | 406 kts | 82° |
| 2025-12-30 09:17 | 27.16319 | 84.97957 | 18036 ft | 383 kts | 91° |
| 2025-12-30 09:18 | 27.15246 | 85.03609 | 17744 ft | 363 kts | 87° |
| 2025-12-30 09:18 | 27.17075 | 85.08513 | 17140 ft | 340 kts | 39° |
| 2025-12-30 09:19 | 27.19819 | 85.12847 | 16218 ft | 342 kts | 54° |
| 2025-12-30 09:19 | 27.23466 | 85.15712 | 15381 ft | 318 kts | 12° |
| 2025-12-30 09:20 | 27.27639 | 85.17159 | 14512 ft | 315 kts | 13° |
| 2025-12-30 09:20 | 27.31703 | 85.18803 | 13172 ft | 308 kts | 15° |
| 2025-12-30 09:20 | 27.33692 | 85.19645 | 12485 ft | 300 kts | 14° |
| 2025-12-30 09:21 | 27.39379 | 85.20888 | 11444 ft | 268 kts | 356° |
| 2025-12-30 09:22 | 27.43135 | 85.20890 | 10803 ft | 271 kts | 358° |
| 2025-12-30 09:22 | 27.46888 | 85.21262 | 10163 ft | 271 kts | 10° |
| 2025-12-30 09:23 | 27.50629 | 85.22418 | 9711 ft | 286 kts | 14° |
| 2025-12-30 09:23 | 27.54123 | 85.23843 | 9341 ft | 257 kts | 24° |
| 2025-12-30 09:24 | 27.56930 | 85.26065 | 9082 ft | 233 kts | 41° |
| 2025-12-30 09:24 | 27.57984 | 85.27369 | 8973 ft | 221 kts | 49° |
| 2025-12-30 09:24 | 27.59582 | 85.30358 | 8790 ft | 222 kts | 64° |
| 2025-12-30 09:25 | 27.61217 | 85.35199 | 8333 ft | 219 kts | 68° |
| 2025-12-30 09:26 | 27.62312 | 85.38427 | 7868 ft | 226 kts | 64° |
| 2025-12-30 09:26 | 27.64004 | 85.41181 | 7741 ft | 200 kts | 46° |
| 2025-12-30 09:27 | 27.65859 | 85.43414 | 7386 ft | 189 kts | 45° |
| 2025-12-30 09:27 | 27.67564 | 85.45445 | 7085 ft | 171 kts | 42° |
| 2025-12-30 09:28 | 27.69501 | 85.46945 | 6498 ft | 169 kts | 20° |
| 2025-12-30 09:28 | 27.70643 | 85.47219 | 6189 ft | 168 kts | 4° |
| 2025-12-30 09:28 | 27.72874 | 85.46627 | 5516 ft | 164 kts | 331° |
| 2025-12-30 09:29 | 27.74823 | 85.43781 | 5016 ft | 153 kts | 286° |
| 2025-12-30 09:30 | 27.74863 | 85.41509 | 4797 ft | 140 kts | 258° |
| 2025-12-30 09:30 | 27.74063 | 85.39509 | 4614 ft | 140 kts | 241° |
| 2025-12-30 09:31 | 27.72569 | 85.38271 | 4505 ft | 157 kts | 186° |
| 2025-12-30 09:31 | 27.70637 | 85.37232 | 4559 ft | 162 kts | 234° |
| 2025-12-30 09:32 | 27.69194 | 85.35425 | 4844 ft | 176 kts | 210° |
| 2025-12-30 09:32 | 27.67965 | 85.34860 | 5582 ft | 207 kts | 202° |
| 2025-12-30 09:32 | 27.65560 | 85.32583 | 6732 ft | 257 kts | 244° |
| 2025-12-30 09:33 | 27.66762 | 85.26785 | 7385 ft | 254 kts | 320° |
| 2025-12-30 09:34 | 27.69865 | 85.25705 | 7415 ft | 233 kts | 4° |
| 2025-12-30 09:34 | 27.72741 | 85.27294 | 7401 ft | 240 kts | 47° |
| 2025-12-30 09:35 | 27.74248 | 85.30724 | 7902 ft | 262 kts | 70° |
| 2025-12-30 09:35 | 27.75476 | 85.34669 | 9706 ft | 268 kts | 72° |
| 2025-12-30 09:35 | 27.75815 | 85.36747 | 10241 ft | 272 kts | 86° |
| 2025-12-30 09:36 | 27.74898 | 85.40861 | 10494 ft | 276 kts | 121° |
| 2025-12-30 09:36 | 27.72057 | 85.43675 | 10490 ft | 274 kts | 155° |
| 2025-12-30 09:37 | 27.66545 | 85.43585 | 10494 ft | 273 kts | 208° |
| 2025-12-30 09:38 | 27.63113 | 85.38807 | 10494 ft | 266 kts | 257° |
| 2025-12-30 09:38 | 27.62916 | 85.36746 | 10493 ft | 264 kts | 272° |
| 2025-12-30 09:39 | 27.63810 | 85.32777 | 10492 ft | 263 kts | 297° |
| 2025-12-30 09:39 | 27.65724 | 85.29266 | 10493 ft | 263 kts | 303° |
| 2025-12-30 09:40 | 27.67698 | 85.25800 | 10499 ft | 263 kts | 302° |
| 2025-12-30 09:40 | 27.69651 | 85.22315 | 10501 ft | 263 kts | 302° |
| 2025-12-30 09:41 | 27.71383 | 85.18680 | 10500 ft | 266 kts | 294° |
| 2025-12-30 09:41 | 27.73579 | 85.12890 | 10499 ft | 269 kts | 293° |
| 2025-12-30 09:42 | 27.74958 | 85.08978 | 10499 ft | 268 kts | 288° |
| 2025-12-30 09:42 | 27.75647 | 85.04830 | 10502 ft | 270 kts | 274° |
| 2025-12-30 09:43 | 27.75689 | 85.00611 | 10501 ft | 268 kts | 270° |
| 2025-12-30 09:43 | 27.75679 | 84.98513 | 10706 ft | 269 kts | 270° |
| 2025-12-30 09:44 | 27.75668 | 84.94295 | 11016 ft | 268 kts | 270° |
| 2025-12-30 09:44 | 27.75664 | 84.92192 | 11012 ft | 268 kts | 270° |
| 2025-12-30 09:45 | 27.75384 | 84.85871 | 11012 ft | 271 kts | 259° |
| 2025-12-30 09:45 | 27.73155 | 84.80051 | 11033 ft | 272 kts | 235° |
| 2025-12-30 09:46 | 27.70701 | 84.76794 | 11030 ft | 273 kts | 229° |
| 2025-12-30 09:46 | 27.68092 | 84.74454 | 11015 ft | 322 kts | 204° |
| 2025-12-30 09:47 | 27.65811 | 84.73943 | 10794 ft | 341 kts | 180° |
| 2025-12-30 09:47 | 27.61808 | 84.76280 | 10515 ft | 349 kts | 128° |
| 2025-12-30 09:48 | 27.58723 | 84.81069 | 10524 ft | 394 kts | 128° |
| 2025-12-30 09:48 | 27.55252 | 84.85889 | 10524 ft | 396 kts | 130° |
| 2025-12-30 09:49 | 27.51664 | 84.90588 | 10525 ft | 395 kts | 131° |
| 2025-12-30 09:49 | 27.46244 | 84.97547 | 10529 ft | 395 kts | 131° |
| 2025-12-30 09:50 | 27.42613 | 85.02182 | 10527 ft | 391 kts | 131° |
| 2025-12-30 09:50 | 27.40862 | 85.04416 | 10533 ft | 368 kts | 132° |
| 2025-12-30 09:51 | 27.37677 | 85.08475 | 10546 ft | 326 kts | 132° |
| 2025-12-30 09:51 | 27.34729 | 85.12226 | 10539 ft | 319 kts | 133° |
| 2025-12-30 09:52 | 27.31952 | 85.16111 | 10466 ft | 320 kts | 114° |
| 2025-12-30 09:52 | 27.31556 | 85.18532 | 10402 ft | 316 kts | 83° |
| 2025-12-30 09:53 | 27.35674 | 85.22890 | 9962 ft | 281 kts | 352° |
| 2025-12-30 09:53 | 27.41325 | 85.21419 | 9306 ft | 283 kts | 349° |
| 2025-12-30 09:54 | 27.45279 | 85.21122 | 9047 ft | 287 kts | 1° |
| 2025-12-30 09:54 | 27.49193 | 85.21987 | 8825 ft | 287 kts | 14° |
| 2025-12-30 09:55 | 27.51112 | 85.22601 | 8808 ft | 287 kts | 14° |
| 2025-12-30 09:55 | 27.54814 | 85.24262 | 8602 ft | 288 kts | 28° |
| 2025-12-30 09:56 | 27.57844 | 85.27151 | 8363 ft | 278 kts | 48° |
| 2025-12-30 09:56 | 27.59727 | 85.30731 | 8139 ft | 256 kts | 66° |
| 2025-12-30 09:57 | 27.60936 | 85.34325 | 7922 ft | 234 kts | 68° |
| 2025-12-30 09:57 | 27.62518 | 85.38914 | 7757 ft | 192 kts | 60° |
| 2025-12-30 09:58 | 27.64074 | 85.41277 | 7603 ft | 181 kts | 46° |
| 2025-12-30 09:58 | 27.64910 | 85.42280 | 7487 ft | 171 kts | 44° |
| 2025-12-30 09:59 | 27.66534 | 85.44223 | 7292 ft | 170 kts | 45° |
| 2025-12-30 09:59 | 27.68228 | 85.46065 | 7057 ft | 168 kts | 36° |
| 2025-12-30 10:00 | 27.70300 | 85.47179 | 6824 ft | 163 kts | 7° |
| 2025-12-30 10:00 | 27.72461 | 85.46854 | 6612 ft | 154 kts | 339° |
| 2025-12-30 10:01 | 27.74117 | 85.45409 | 6208 ft | 151 kts | 309° |
| 2025-12-30 10:01 | 27.74955 | 85.42110 | 5404 ft | 146 kts | 265° |
| 2025-12-30 10:02 | 27.74741 | 85.41016 | 5148 ft | 140 kts | 253° |
| 2025-12-30 10:02 | 27.73865 | 85.39151 | 4972 ft | 134 kts | 241° |
| 2025-12-30 10:03 | 27.72729 | 85.37481 | 4763 ft | 137 kts | 224° |
| 2025-12-30 10:03 | 27.70992 | 85.36516 | 4511 ft | 141 kts | 202° |
| 2025-12-30 10:04 | 27.69292 | 85.35688 | 4400 ft | 110 kts | 200° |
| 2025-12-30 10:04 | 27.68769 | 85.35503 | 4396 ft | 0 kts | 202° |
| 2025-12-30 10:05 | 27.68698 | 85.35471 | 4397 ft | 18 kts | 201° |
| 2025-12-30 10:05 | 27.68292 | 85.35254 | 4407 ft | 25 kts | 222° |
| 2025-12-30 10:06 | 27.68167 | 85.35214 | 4406 ft | 5 kts | 122° |
| 2025-12-30 10:06 | 27.68330 | 85.35309 | 4406 ft | 26 kts | 22° |
| 2025-12-30 10:07 | 27.68735 | 85.35491 | 4396 ft | 37 kts | 21° |
| 2025-12-30 10:07 | 27.69068 | 85.35585 | 4396 ft | 0 kts | 321° |
| 2025-12-30 10:08 | 27.69165 | 85.35571 | 4396 ft | 24 kts | 17° |
| 2025-12-30 10:08 | 27.69511 | 85.35727 | 4403 ft | 27 kts | 23° |
| 2025-12-30 10:09 | 27.69676 | 85.35746 | 4404 ft | 3 kts | 301° |
| 2025-12-30 10:09 | 27.69688 | 85.35720 | 4404 ft | 0 kts | 297° |